createdAt,value
2022-11-16T06:17:31.382Z,73.75
2022-11-16T06:20:39.159Z,73.74
2022-11-16T06:23:45.495Z,73.80
2022-11-16T06:26:52.800Z,73.73
2022-11-16T06:29:59.214Z,73.67
2022-11-16T06:33:06.887Z,73.51
2022-11-16T06:36:13.854Z,73.53
2022-11-16T06:39:22.987Z,73.52
2022-11-16T06:42:29.498Z,73.62
2022-11-16T06:45:34.381Z,73.59
2022-11-16T06:48:40.363Z,73.55
2022-11-16T06:51:47.001Z,73.65
2022-11-16T06:54:53.068Z,73.77
2022-11-16T06:58:01.520Z,73.86
2022-11-16T07:01:08.352Z,73.83
2022-11-16T07:04:16.823Z,73.86
2022-11-16T07:07:24.723Z,73.88
2022-11-16T07:10:30.162Z,73.86
2022-11-16T07:13:35.493Z,73.80
2022-11-16T07:16:44.230Z,73.75
2022-11-16T07:19:52.849Z,73.74
2022-11-16T07:22:58.696Z,73.76
2022-11-16T07:26:03.118Z,73.58
2022-11-16T07:29:10.512Z,73.42
2022-11-16T07:32:19.497Z,73.38
2022-11-16T07:35:29.188Z,73.35
2022-11-16T07:38:36.845Z,73.32
2022-11-16T07:41:42.366Z,73.40
2022-11-16T07:44:58.702Z,73.36
2022-11-16T07:48:09.672Z,73.50
2022-11-16T07:51:31.806Z,73.46
2022-11-16T07:54:41.781Z,73.49
2022-11-16T07:57:52.966Z,73.61
2022-11-16T08:00:56.398Z,73.72
2022-11-16T08:04:08.067Z,73.86
2022-11-16T08:07:13.398Z,73.91
2022-11-16T08:10:22.555Z,73.95
2022-11-16T08:13:32.234Z,74.00
2022-11-16T08:16:41.902Z,74.03
2022-11-16T08:19:52.245Z,74.07
2022-11-16T08:23:03.152Z,74.04
2022-11-16T08:26:30.509Z,73.95
2022-11-16T08:29:40.848Z,73.93
2022-11-16T08:32:50.480Z,73.99
2022-11-16T08:35:57.794Z,74.14
2022-11-16T08:39:05.479Z,74.25
2022-11-16T08:42:11.113Z,74.25
2022-11-16T08:45:17.608Z,74.27
2022-11-16T08:48:23.587Z,74.24
2022-11-16T08:51:31.270Z,74.27
2022-11-16T08:54:37.325Z,74.22
2022-11-16T08:57:44.203Z,74.20
2022-11-16T09:00:50.727Z,74.20
2022-11-16T09:04:13.044Z,74.19
2022-11-16T09:07:35.369Z,74.16
2022-11-16T09:10:41.891Z,74.28
2022-11-16T09:13:51.034Z,74.30
2022-11-16T09:16:57.705Z,74.30
2022-11-16T09:20:02.699Z,74.32
2022-11-16T09:23:10.376Z,74.31
2022-11-16T09:26:17.847Z,74.26
2022-11-16T09:29:28.337Z,74.26
2022-11-16T09:32:34.970Z,74.33
2022-11-16T09:35:42.664Z,74.28
2022-11-16T09:42:24.708Z,74.28
2022-11-16T09:45:37.211Z,74.35
2022-11-16T09:48:42.619Z,74.46
2022-11-16T09:51:49.015Z,74.52
2022-11-16T09:54:56.579Z,74.49
2022-11-16T09:58:07.823Z,74.42
2022-11-16T10:01:36.477Z,74.37
2022-11-16T10:05:03.370Z,74.18
2022-11-16T10:08:16.860Z,74.15
2022-11-16T10:11:47.617Z,74.19
2022-11-16T10:15:34.835Z,74.27
2022-11-16T10:18:51.334Z,74.28
2022-11-16T10:22:16.803Z,74.23
2022-11-16T10:25:33.988Z,74.15
2022-11-16T10:28:53.447Z,74.12
2022-11-16T10:32:13.094Z,74.09
2022-11-16T10:35:34.669Z,73.95
2022-11-16T10:38:47.067Z,73.90
2022-11-16T10:42:07.228Z,73.88
2022-11-16T10:45:27.340Z,73.78
2022-11-16T10:48:51.688Z,73.89
2022-11-16T10:52:00.764Z,74.14
2022-11-16T10:55:08.431Z,74.41
2022-11-16T10:58:20.123Z,74.55
2022-11-16T11:01:19.660Z,74.54
2022-11-16T11:04:42.935Z,74.29
2022-11-16T11:07:55.319Z,74.34
2022-11-16T11:10:59.491Z,74.34
2022-11-16T11:14:26.497Z,74.53
2022-11-16T11:17:32.283Z,74.54
2022-11-16T11:20:44.532Z,74.40
2022-11-16T11:24:42.421Z,74.23
2022-11-16T11:27:14.678Z,74.36
2022-11-16T11:30:22.778Z,74.51
2022-11-16T11:33:31.090Z,74.46
2022-11-16T11:36:41.578Z,74.55
2022-11-16T11:39:50.770Z,74.55
2022-11-16T11:42:56.967Z,74.68
2022-11-16T11:46:22.848Z,74.88
2022-11-16T11:49:43.118Z,74.93
2022-11-16T11:53:01.939Z,74.95
2022-11-16T11:56:13.363Z,75.02
2022-11-16T11:59:21.098Z,75.11
2022-11-16T12:03:12.433Z,74.99
2022-11-16T12:06:25.071Z,75.02
2022-11-16T12:09:45.189Z,74.93
2022-11-16T12:13:23.409Z,75.06
2022-11-16T12:16:35.489Z,75.15
2022-11-16T12:19:50.639Z,75.11
2022-11-16T12:23:35.775Z,75.19
2022-11-16T12:27:12.742Z,75.17
2022-11-16T12:30:35.776Z,75.26
2022-11-16T12:34:10.527Z,75.26
2022-11-16T12:37:37.518Z,75.23
2022-11-16T12:40:48.488Z,75.21
2022-11-16T12:44:15.825Z,75.17
2022-11-16T12:47:51.376Z,75.24
2022-11-16T12:51:09.878Z,75.31
2022-11-16T12:55:19.002Z,75.04
2022-11-16T12:58:48.636Z,75.12
2022-11-16T13:02:09.870Z,75.24
2022-11-16T13:05:35.206Z,75.30
2022-11-16T13:09:14.087Z,75.46
2022-11-16T13:12:26.217Z,75.58
2022-11-16T13:15:36.566Z,75.46
2022-11-16T13:18:42.256Z,75.43
2022-11-16T13:22:10.363Z,75.54
2022-11-16T13:25:31.656Z,75.50
2022-11-16T13:28:45.894Z,75.52
2022-11-16T13:32:13.857Z,75.48
2022-11-16T13:35:23.562Z,75.53
2022-11-16T13:38:30.007Z,75.75
2022-11-16T13:41:59.656Z,75.83
2022-11-16T13:45:07.561Z,75.95
2022-11-16T13:48:14.342Z,75.95
2022-11-16T13:51:21.108Z,75.91
2022-11-16T13:54:46.242Z,75.97
2022-11-16T13:57:39.179Z,76.04
2022-11-16T14:00:53.660Z,76.03
2022-11-16T14:04:07.837Z,76.07
2022-11-16T14:07:13.628Z,76.10
2022-11-16T14:10:21.882Z,76.08
2022-11-16T14:13:57.278Z,76.03
2022-11-16T14:17:08.310Z,76.10
2022-11-16T14:20:18.360Z,76.11
2022-11-16T14:23:53.135Z,76.14
2022-11-16T14:27:31.058Z,76.20
2022-11-16T14:30:46.144Z,76.23
2022-11-16T14:33:54.345Z,76.19
2022-11-16T14:37:01.704Z,76.17
2022-11-16T14:40:07.596Z,76.12
2022-11-16T14:43:21.591Z,76.16
2022-11-16T14:46:46.978Z,76.24
2022-11-16T14:49:54.390Z,76.31
2022-11-16T14:53:02.753Z,76.30
2022-11-16T14:56:08.907Z,76.21
2022-11-16T14:59:15.130Z,76.10
2022-11-16T15:02:31.083Z,76.14
2022-11-16T15:05:39.822Z,76.28
2022-11-16T15:08:55.185Z,76.31
2022-11-16T15:12:21.547Z,76.25
2022-11-16T15:15:31.628Z,76.34
2022-11-16T15:18:39.316Z,76.42
2022-11-16T15:21:45.189Z,76.46
2022-11-16T15:24:52.053Z,76.46
2022-11-16T15:28:00.081Z,76.39
2022-11-16T15:31:16.081Z,76.39
2022-11-16T15:34:22.915Z,76.41
2022-11-16T15:37:29.500Z,76.44
2022-11-16T15:40:35.339Z,76.46
2022-11-16T15:44:11.658Z,76.52
2022-11-16T15:46:52.290Z,76.54
2022-11-16T15:50:01.368Z,76.53
2022-11-16T15:53:08.749Z,76.57
2022-11-16T15:56:14.329Z,76.58
2022-11-16T15:59:43.023Z,76.59
2022-11-16T16:02:47.895Z,76.63
2022-11-16T16:05:55.964Z,76.63
2022-11-16T16:09:05.739Z,76.67
2022-11-16T16:12:33.930Z,76.72
2022-11-16T16:15:48.239Z,76.76
2022-11-16T16:19:01.640Z,76.72
2022-11-16T16:22:10.314Z,76.71
2022-11-16T16:25:21.737Z,76.68
2022-11-16T16:28:27.767Z,76.72
2022-11-16T16:31:33.762Z,76.79
2022-11-16T16:34:42.425Z,76.80
2022-11-16T16:37:49.976Z,76.82
2022-11-16T16:40:57.161Z,76.74
2022-11-16T16:44:03.983Z,76.70
2022-11-16T16:47:11.856Z,76.74
2022-11-16T16:50:18.314Z,76.73
2022-11-16T16:53:26.174Z,76.71
2022-11-16T16:56:32.180Z,76.77
2022-11-16T16:59:38.999Z,76.78
2022-11-16T17:02:43.562Z,76.83
2022-11-16T17:05:49.593Z,76.84
2022-11-16T17:08:55.999Z,76.84
2022-11-16T17:12:03.045Z,76.83
2022-11-16T17:15:15.101Z,76.90
2022-11-16T17:18:20.330Z,76.95
2022-11-16T17:21:27.553Z,76.96
2022-11-16T17:24:32.319Z,77.01
2022-11-16T17:27:38.371Z,77.02
2022-11-16T17:30:46.397Z,77.05
2022-11-16T17:33:56.474Z,77.09
2022-11-16T17:37:04.015Z,77.12
2022-11-16T17:40:10.491Z,77.19
2022-11-16T17:43:17.013Z,77.19
2022-11-16T17:46:30.547Z,77.13
2022-11-16T17:49:35.971Z,77.15
2022-11-16T17:52:45.332Z,77.12
2022-11-16T17:55:52.862Z,77.04
2022-11-16T17:59:01.893Z,77.11
2022-11-16T18:02:07.689Z,77.24
2022-11-16T18:05:14.605Z,77.26
2022-11-16T18:08:20.863Z,77.31
2022-11-16T18:11:36.266Z,77.36
2022-11-16T18:14:59.960Z,77.38
2022-11-16T18:17:50.571Z,77.39
2022-11-16T18:20:57.491Z,77.44
2022-11-16T18:24:07.729Z,77.46
2022-11-16T18:27:13.692Z,77.44
2022-11-16T18:30:21.134Z,77.46
2022-11-16T18:33:30.354Z,77.44
2022-11-16T18:36:35.101Z,77.40
2022-11-16T18:39:39.606Z,77.39
2022-11-16T18:42:45.058Z,77.46
2022-11-16T18:45:51.250Z,77.48
2022-11-16T18:48:57.165Z,77.51
2022-11-16T18:52:04.398Z,77.49
2022-11-16T18:55:10.222Z,77.45
2022-11-16T18:58:35.920Z,77.50
2022-11-16T19:01:27.797Z,77.39
2022-11-16T19:04:35.153Z,77.36
2022-11-16T19:07:44.321Z,77.47
2022-11-16T19:10:53.414Z,77.58
2022-11-16T19:14:00.272Z,77.60
2022-11-16T19:17:06.296Z,77.66
2022-11-16T19:20:14.079Z,77.74
2022-11-16T19:23:19.991Z,77.76
2022-11-16T19:26:30.169Z,77.77
2022-11-16T19:29:37.206Z,77.73
2022-11-16T19:32:43.747Z,77.73
2022-11-16T19:35:52.380Z,77.73
2022-11-16T19:39:00.111Z,77.80
2022-11-16T19:42:06.163Z,77.87
2022-11-16T19:45:12.255Z,77.85
2022-11-16T19:48:20.560Z,77.85
2022-11-16T19:51:28.602Z,77.86
2022-11-16T19:54:36.506Z,77.80
2022-11-16T19:57:43.977Z,77.78
2022-11-16T20:00:51.449Z,77.81
2022-11-16T20:03:57.207Z,77.85
2022-11-16T20:07:03.661Z,77.87
2022-11-16T20:10:11.232Z,77.89
2022-11-16T20:13:17.840Z,77.94
2022-11-16T20:16:25.030Z,77.94
2022-11-16T20:19:31.618Z,77.99
2022-11-16T20:22:39.704Z,78.02
2022-11-16T20:25:47.210Z,78.11
2022-11-16T20:28:57.521Z,78.14
2022-11-16T20:32:04.525Z,78.10
2022-11-16T20:35:12.747Z,78.02
2022-11-16T20:38:18.904Z,77.98
2022-11-16T20:41:30.953Z,78.05
2022-11-16T20:44:37.933Z,78.01
2022-11-16T20:47:43.959Z,78.13
2022-11-16T20:50:51.876Z,78.20
2022-11-16T20:53:59.407Z,78.23
2022-11-16T20:57:05.684Z,78.25
2022-11-16T21:00:12.030Z,78.27
2022-11-16T21:03:19.642Z,78.21
2022-11-16T21:06:27.256Z,78.15
2022-11-16T21:09:36.582Z,78.25
2022-11-16T21:13:00.447Z,78.31
2022-11-16T21:16:16.557Z,78.34
2022-11-16T21:19:23.236Z,78.39
2022-11-16T21:22:32.277Z,78.50
2022-11-16T21:25:38.777Z,78.46
2022-11-16T21:28:46.754Z,78.40
2022-11-16T21:31:52.325Z,78.34
2022-11-16T21:34:59.174Z,78.37
2022-11-16T21:38:06.747Z,78.40
2022-11-16T21:41:12.899Z,78.46
2022-11-16T21:44:18.591Z,78.41
2022-11-16T21:47:27.097Z,78.36
2022-11-16T21:50:34.275Z,78.41
2022-11-16T21:53:41.134Z,78.37
2022-11-16T21:56:47.846Z,78.44
2022-11-16T21:59:54.952Z,78.48
2022-11-16T22:03:03.299Z,78.51
2022-11-16T22:06:33.059Z,78.53
2022-11-16T22:09:39.618Z,78.55
2022-11-16T22:12:45.786Z,78.57
2022-11-16T22:15:51.416Z,78.54
2022-11-16T22:18:57.990Z,78.50
2022-11-16T22:22:04.470Z,78.52
2022-11-16T22:25:09.737Z,78.60
2022-11-16T22:28:20.582Z,78.64
2022-11-16T22:31:28.198Z,78.60
2022-11-16T22:34:34.861Z,78.57
2022-11-16T22:37:43.206Z,78.60
2022-11-16T22:40:49.312Z,78.49
2022-11-16T22:43:56.752Z,78.49
2022-11-16T22:47:04.980Z,78.57
2022-11-16T22:50:10.848Z,78.56
2022-11-16T22:53:18.187Z,78.34
2022-11-16T22:56:24.359Z,78.32
2022-11-16T22:59:30.152Z,78.41
2022-11-16T23:02:35.546Z,78.65
2022-11-16T23:05:41.419Z,78.80
2022-11-16T23:08:49.179Z,78.90
2022-11-16T23:12:13.460Z,78.66
2022-11-16T23:15:39.871Z,78.79
2022-11-16T23:18:44.971Z,78.90
2022-11-16T23:22:08.734Z,78.91
2022-11-16T23:25:32.319Z,78.93
2022-11-16T23:28:37.595Z,78.98
2022-11-16T23:31:42.500Z,79.02
2022-11-16T23:34:49.254Z,78.90
2022-11-16T23:38:14.809Z,78.84
2022-11-16T23:41:39.072Z,78.96
2022-11-16T23:44:45.636Z,79.05
2022-11-16T23:47:51.274Z,79.13
2022-11-16T23:50:57.472Z,79.06
2022-11-16T23:54:07.191Z,78.96
2022-11-16T23:57:13.384Z,78.88
